Ardsley, Pennsylvania
Current Conditions -  °F | °C
As of 6:15 PM on Wednesday 22 Oct 2014 (Local Time) from KLOM Reporting Station
Broken Clouds Broken Clouds  
Wind Chill: 54°   Ceiling: 2500
Heat Index: 54°   Visibility: 10mi
Dew Point: 52°   Wind: 7mph
Humidity: 94%   Direction: 350°N
Pressure: 29.85"   Gusts: NA
Location:  40.1012°N, 75.1722°W
Report Text: KLOM 222215Z AUTO 35006KT 10SM SCT009 SCT016 BKN025 12/11 A2985 RMK AO1
Loading
Personal Weather Stations






























Interactive Weather Map
Tropical Storm Tracking
New forecast layout! Learn more

10-Day Weather Forecast

Advertisements
Track Severe Weather on mobile